Time;durP1;ratioP1;P1;durP2;ratioP2;P2;SDS_P1;SDS_P2;PMS_P1;PMS_P2;Temp;Humidity;BMP_temperature;BMP_pressure;BME280_temperature;BME280_humidity;BME280_pressure;Samples;Min_cycle;Max_cycle;Signal;HPM_P1;HPM_P2
2022/07/06 00:04:58;;;;;;;0.93;0.90;;;;;;;19.84;56.42;97298.72;10397664;28;20404;-22
2022/07/06 00:09:58;;;;;;;1.83;0.98;;;;;;;19.82;56.26;97292.75;10392955;28;20030;-21
2022/07/06 00:14:59;;;;;;;1.20;1.08;;;;;;;19.86;56.38;97286.84;10397163;28;20064;-22
2022/07/06 00:19:59;;;;;;;1.33;0.93;;;;;;;19.87;56.17;97303.78;10396035;28;20033;-22
2022/07/06 00:24:59;;;;;;;0.97;0.87;;;;;;;19.82;56.02;97292.75;10393200;28;20033;-22
2022/07/06 00:30:00;;;;;;;3.07;1.00;;;;;;;19.78;56.14;97296.13;10394773;28;20033;-22
2022/07/06 00:35:00;;;;;;;2.73;0.90;;;;;;;19.78;56.18;97288.53;10391923;28;20036;-21
2022/07/06 00:40:00;;;;;;;1.37;0.87;;;;;;;19.76;56.14;97274.97;10388161;28;20044;-22
2022/07/06 00:45:01;;;;;;;1.43;0.90;;;;;;;19.74;56.05;97276.63;10391062;28;20029;-22
2022/07/06 00:50:17;;;;;;;1.75;0.80;;;;;;;19.73;55.67;97277.47;10398508;28;20497;-22
2022/07/06 00:55:19;;;;;;;;;;;;;;;19.71;55.41;97274.94;10395334;28;20430;-23
2022/07/06 01:00:22;;;;;;;0.85;0.73;;;;;;;19.75;55.46;97281.72;10384296;28;19921;-22
2022/07/06 01:05:22;;;;;;;1.63;0.85;;;;;;;19.75;55.14;97275.81;10394280;28;20377;-22
2022/07/06 01:10:24;;;;;;;0.70;0.70;;;;;;;19.68;55.32;97269.00;10401888;28;20029;-21
2022/07/06 01:15:25;;;;;;;1.33;0.80;;;;;;;19.68;55.23;97276.63;10394372;28;20030;-21
2022/07/06 01:20:28;;;;;;;1.88;1.20;;;;;;;19.61;55.16;97268.09;10388163;28;20120;-25
2022/07/06 01:25:29;;;;;;;3.10;1.13;;;;;;;19.61;55.32;97270.66;10393424;28;20056;-25
2022/07/06 01:30:29;;;;;;;1.15;0.93;;;;;;;19.62;55.04;97266.44;10388073;28;20040;-22
2022/07/06 01:35:32;;;;;;;2.73;0.80;;;;;;;19.61;54.97;97260.50;10395152;28;20060;-21
2022/07/06 01:40:32;;;;;;;2.45;0.98;;;;;;;19.58;54.99;97262.19;10388445;28;20739;-21
2022/07/06 01:45:33;;;;;;;1.53;0.90;;;;;;;19.60;54.75;97260.50;10390568;28;20116;-23
2022/07/06 01:50:33;;;;;;;1.48;0.90;;;;;;;19.62;54.67;97246.09;10384955;28;20034;-22
2022/07/06 01:55:34;;;;;;;1.67;0.87;;;;;;;19.58;54.60;97246.97;10381263;28;20029;-22
2022/07/06 02:00:34;;;;;;;1.90;0.88;;;;;;;19.58;54.38;97247.78;10390718;28;20863;-21
2022/07/06 02:05:35;;;;;;;1.48;0.82;;;;;;;19.54;54.57;97246.09;10392285;28;20025;-22
2022/07/06 02:10:35;;;;;;;0.95;0.75;;;;;;;19.51;54.59;97245.22;10402811;28;20021;-22
2022/07/06 02:15:36;;;;;;;1.13;1.02;;;;;;;19.48;54.57;97240.09;10396894;28;20105;-24
2022/07/06 02:20:36;;;;;;;1.90;1.40;;;;;;;19.46;54.51;97241.81;10396729;28;20122;-24
2022/07/06 02:25:37;;;;;;;3.72;0.95;;;;;;;19.46;54.25;97251.97;10382332;28;20194;-21
2022/07/06 02:30:38;;;;;;;1.15;0.82;;;;;;;19.36;54.42;97238.41;10397765;28;20025;-22
2022/07/06 02:35:42;;;;;;;1.30;0.80;;;;;;;19.52;54.04;97252.84;10390321;28;20034;-24
2022/07/06 02:40:43;;;;;;;2.03;1.13;;;;;;;19.50;54.19;97256.22;10392517;28;20030;-22
2022/07/06 02:45:44;;;;;;;2.60;0.93;;;;;;;19.46;53.96;97257.03;10404522;28;20029;-22
2022/07/06 02:50:46;;;;;;;2.00;1.23;;;;;;;19.43;53.97;97264.66;10387283;28;20033;-23
2022/07/06 02:55:47;;;;;;;2.08;1.00;;;;;;;19.40;54.06;97268.03;10391631;28;20113;-22
2022/07/06 03:00:47;;;;;;;1.00;0.88;;;;;;;19.39;53.99;97265.47;10394241;28;20041;-22
2022/07/06 03:05:48;;;;;;;1.42;1.05;;;;;;;19.38;53.94;97284.09;10395392;28;20033;-22
2022/07/06 03:10:50;;;;;;;1.40;0.95;;;;;;;19.36;54.02;97280.69;10397832;28;20029;-22
2022/07/06 03:15:51;;;;;;;2.55;0.88;;;;;;;19.33;54.16;97273.06;10390329;28;20034;-23
2022/07/06 03:20:52;;;;;;;2.30;1.30;;;;;;;19.35;54.03;97284.09;10393739;28;20030;-23
2022/07/06 03:25:53;;;;;;;2.78;0.98;;;;;;;19.40;53.92;97284.94;10390696;28;20504;-22
2022/07/06 03:30:54;;;;;;;2.70;0.77;;;;;;;19.37;53.63;97287.47;10387989;28;20021;-22
2022/07/06 03:35:56;;;;;;;2.80;1.10;;;;;;;19.33;53.80;97278.97;10391328;28;20118;-22
2022/07/06 03:40:56;;;;;;;3.63;1.50;;;;;;;19.27;53.62;97270.50;10392009;28;20442;-23
2022/07/06 03:45:57;;;;;;;1.10;1.00;;;;;;;19.30;53.81;97280.66;10389233;28;20528;-22
2022/07/06 03:50:58;;;;;;;3.72;1.20;;;;;;;19.35;53.67;97284.09;10384722;28;20052;-23
2022/07/06 04:01:18;;;;;;;1.85;0.90;;;;;;;19.93;50.33;97281.78;10397505;28;20550;-22
2022/07/06 04:06:18;;;;;;;2.83;1.00;;;;;;;20.06;49.90;97277.63;10398686;28;20033;-23
2022/07/06 04:11:20;;;;;;;1.92;0.70;;;;;;;19.98;49.94;97274.16;10395776;28;20032;-25
2022/07/06 04:16:21;;;;;;;4.35;1.13;;;;;;;20.01;50.36;97279.28;10391536;28;20060;-22
2022/07/06 04:21:21;;;;;;;3.97;1.00;;;;;;;19.99;49.67;97276.72;10391119;28;20421;-22
2022/07/06 04:26:22;;;;;;;1.83;1.10;;;;;;;19.89;50.55;97269.94;10389820;28;20471;-22
2022/07/06 04:31:22;;;;;;;1.83;1.08;;;;;;;19.84;51.26;97273.31;10397423;28;20455;-26
2022/07/06 04:36:24;;;;;;;1.85;0.90;;;;;;;19.90;50.52;97268.22;10396441;28;20407;-22
2022/07/06 04:41:25;;;;;;;2.58;1.30;;;;;;;19.90;50.43;97271.63;10392703;28;20029;-22
2022/07/06 04:46:27;;;;;;;3.75;1.17;;;;;;;19.73;51.59;97280.00;10392460;28;20568;-22
2022/07/06 04:51:28;;;;;;;3.35;1.52;;;;;;;19.85;51.57;97280.91;10393819;28;20022;-23
2022/07/06 04:56:28;;;;;;;4.03;1.20;;;;;;;20.12;50.69;97280.19;10396924;28;20032;-22
2022/07/06 05:01:30;;;;;;;3.58;1.13;;;;;;;20.22;50.20;97279.34;10408191;28;20408;-21
2022/07/06 05:06:30;;;;;;;9.82;1.70;;;;;;;20.23;50.15;97271.75;10399216;28;20046;-22
2022/07/06 05:11:31;;;;;;;4.75;2.03;;;;;;;20.17;50.78;97273.44;10397457;28;20228;-24
2022/07/06 05:16:32;;;;;;;3.90;1.10;;;;;;;20.16;52.46;97286.97;10389777;28;20112;-23
2022/07/06 05:21:32;;;;;;;4.53;1.17;;;;;;;20.15;52.87;97282.72;10400830;28;20095;-23
2022/07/06 05:26:33;;;;;;;3.13;1.20;;;;;;;20.16;53.07;97279.31;10388673;28;20377;-23
2022/07/06 05:31:34;;;;;;;5.85;1.40;;;;;;;20.17;53.28;97281.06;10396087;28;20823;-23
2022/07/06 05:36:34;;;;;;;4.53;1.52;;;;;;;20.02;53.22;97283.53;10395739;28;20036;-22
2022/07/06 05:41:35;;;;;;;2.40;1.80;;;;;;;20.11;53.93;97279.31;10395663;28;20057;-22
2022/07/06 05:46:36;;;;;;;2.92;1.23;;;;;;;20.14;53.40;97283.56;10399658;28;20034;-22
2022/07/06 05:51:37;;;;;;;1.85;1.20;;;;;;;20.16;54.12;97287.81;10395397;28;20032;-22
2022/07/06 05:56:37;;;;;;;5.00;1.58;;;;;;;20.36;52.82;97292.94;10402355;28;20029;-21
2022/07/06 06:01:38;;;;;;;5.00;1.60;;;;;;;20.44;52.67;97287.00;10399292;28;20021;-21
2022/07/06 06:06:46;;;;;;;4.40;1.10;;;;;;;20.36;54.08;97298.03;10405365;28;20029;-22
2022/07/06 06:11:47;;;;;;;1.25;1.15;;;;;;;20.30;54.21;97300.56;10400360;28;20021;-21
2022/07/06 06:16:48;;;;;;;2.38;1.00;;;;;;;20.28;54.50;97302.25;10400340;28;20045;-21
2022/07/06 06:21:49;;;;;;;1.35;1.00;;;;;;;20.28;54.66;97299.72;10404733;28;20040;-23
2022/07/06 06:26:49;;;;;;;1.73;1.00;;;;;;;20.28;54.84;97304.81;10399151;28;20111;-21
2022/07/06 06:31:49;;;;;;;1.23;1.07;;;;;;;20.28;55.03;97309.88;10404190;28;20095;-22
2022/07/06 06:36:50;;;;;;;2.20;1.00;;;;;;;20.27;54.99;97309.03;10399252;28;20167;-23
2022/07/06 06:41:50;;;;;;;2.55;1.58;;;;;;;20.28;54.89;97304.81;10399447;28;20350;-23
2022/07/06 06:46:52;;;;;;;3.53;1.10;;;;;;;20.42;54.24;97309.06;10399750;28;20425;-22
2022/07/06 06:51:52;;;;;;;2.13;1.35;;;;;;;20.49;54.22;97301.47;10403281;28;20774;-21
2022/07/06 06:56:52;;;;;;;1.20;0.90;;;;;;;20.43;54.66;97301.44;10403015;28;20087;-22
2022/07/06 07:01:53;;;;;;;1.98;0.93;;;;;;;20.38;54.94;97298.03;10399035;28;20025;-22
2022/07/06 07:06:53;;;;;;;1.77;1.20;;;;;;;20.35;55.21;97306.53;10404791;28;20388;-22
2022/07/06 07:11:54;;;;;;;1.60;0.83;;;;;;;20.35;55.43;97304.81;10395346;28;20435;-22
2022/07/06 07:16:55;;;;;;;1.60;1.20;;;;;;;20.33;55.26;97298.03;10398070;28;20083;-21
2022/07/06 07:21:55;;;;;;;1.03;0.87;;;;;;;20.33;55.41;97295.50;10405334;28;20087;-22
2022/07/06 07:26:55;;;;;;;1.63;0.93;;;;;;;20.33;55.51;97303.13;10399617;28;20026;-23
2022/07/06 07:31:56;;;;;;;2.70;1.17;;;;;;;20.26;55.49;97283.63;10400927;28;20483;-22
2022/07/06 07:36:56;;;;;;;3.57;1.23;;;;;;;20.43;55.33;97292.94;10400475;28;20607;-22
2022/07/06 07:41:56;;;;;;;1.23;1.00;;;;;;;20.57;55.77;97304.84;10404460;28;20306;-22
2022/07/06 07:46:57;;;;;;;1.40;1.00;;;;;;;20.56;55.09;97315.84;10399719;28;20026;-22
2022/07/06 07:51:57;;;;;;;1.10;0.80;;;;;;;20.45;55.46;97307.38;10394447;28;20113;-22
2022/07/06 07:56:58;;;;;;;2.03;1.15;;;;;;;20.42;55.89;97300.59;10398849;28;20038;-21
2022/07/06 08:01:58;;;;;;;1.05;0.90;;;;;;;20.39;55.93;97315.00;10395463;28;20041;-22
2022/07/06 08:06:59;;;;;;;1.30;0.97;;;;;;;20.38;55.78;97313.28;10388038;28;20381;-23
2022/07/06 08:11:59;;;;;;;1.10;0.90;;;;;;;20.39;55.99;97314.16;10396580;28;20026;-22
2022/07/06 08:16:59;;;;;;;1.40;0.90;;;;;;;20.31;55.95;97294.63;10391320;28;20778;-22
2022/07/06 08:22:00;;;;;;;1.58;0.90;;;;;;;20.38;56.19;97316.69;10396849;28;20071;-22
2022/07/06 08:27:00;;;;;;;1.35;0.98;;;;;;;20.37;56.17;97315.84;10393204;28;20389;-22
2022/07/06 08:32:01;;;;;;;1.48;1.00;;;;;;;20.56;56.13;97328.59;10397799;28;20068;-23
2022/07/06 08:37:02;;;;;;;2.80;0.82;;;;;;;20.64;55.57;97326.91;10390610;28;20052;-22
2022/07/06 08:42:02;;;;;;;1.73;0.90;;;;;;;20.51;56.06;97320.13;10392863;28;20056;-23
2022/07/06 08:47:06;;;;;;;0.70;0.68;;;;;;;20.46;56.15;97324.34;10394397;28;20484;-22
2022/07/06 08:52:07;;;;;;;1.25;1.00;;;;;;;20.42;56.35;97320.94;10399604;28;20029;-22
2022/07/06 08:57:08;;;;;;;1.60;0.77;;;;;;;20.42;56.42;97318.41;10398510;28;20030;-22
2022/07/06 09:02:13;;;;;;;0.70;0.60;;;;;;;20.42;56.41;97328.59;10395674;28;20033;-21
2022/07/06 09:07:13;;;;;;;1.00;0.80;;;;;;;20.41;56.41;97322.63;10400190;28;20092;-22
2022/07/06 09:12:14;;;;;;;1.50;0.90;;;;;;;20.40;56.72;97329.41;10405721;28;20076;-22
2022/07/06 09:17:14;;;;;;;0.90;0.60;;;;;;;20.39;56.49;97340.41;10401145;28;20060;-23
2022/07/06 09:22:26;;;;;;;2.20;1.10;;;;;;;20.57;56.73;97335.38;10404879;28;20299;-22
2022/07/06 09:27:26;;;;;;;2.20;0.85;;;;;;;20.66;56.65;97340.50;10400790;28;20151;-21
2022/07/06 09:32:27;;;;;;;1.60;1.10;;;;;;;20.54;56.18;97339.63;10403804;28;20034;-23
2022/07/06 09:37:29;;;;;;;1.20;0.90;;;;;;;20.48;56.49;97344.69;10401921;28;20292;-21
2022/07/06 09:42:31;;;;;;;0.90;0.73;;;;;;;20.45;56.83;97360.78;10399279;28;20041;-22
2022/07/06 09:47:32;;;;;;;1.67;1.13;;;;;;;20.36;56.75;97341.28;10397075;28;20437;-22
2022/07/06 09:52:35;;;;;;;1.65;0.70;;;;;;;20.43;56.62;97357.41;10394358;28;20040;-22
2022/07/06 09:57:36;;;;;;;1.25;0.60;;;;;;;20.42;56.54;97359.09;10403420;28;20036;-22
2022/07/06 10:02:37;;;;;;;0.88;0.63;;;;;;;20.42;56.86;97353.16;10398787;28;20519;-21
2022/07/06 10:07:37;;;;;;;1.02;0.75;;;;;;;20.42;56.92;97354.03;10400820;28;20079;-21
2022/07/06 10:12:41;;;;;;;1.02;0.70;;;;;;;20.53;56.68;97354.03;10399779;28;20099;-22
2022/07/06 10:17:42;;;;;;;1.00;0.80;;;;;;;20.68;57.11;97351.53;10403006;28;20065;-21
2022/07/06 10:22:43;;;;;;;1.10;0.98;;;;;;;20.64;56.58;97347.25;10403149;28;20047;-21
2022/07/06 10:27:46;;;;;;;0.80;0.70;;;;;;;20.52;56.85;97347.25;10400041;28;20055;-21
2022/07/06 10:32:49;;;;;;;0.70;0.70;;;;;;;20.44;57.02;97332.81;10392437;28;20037;-21
2022/07/06 10:38:04;;;;;;;0.90;0.80;;;;;;;20.46;56.95;97346.41;10395004;28;20095;-21
2022/07/06 10:43:04;;;;;;;1.15;0.70;;;;;;;20.45;56.92;97353.16;10387961;28;20034;-22
2022/07/06 10:48:11;;;;;;;0.70;0.60;;;;;;;20.44;57.24;97354.00;10399758;28;20029;-22
2022/07/06 10:53:15;;;;;;;;;;;;;;;20.44;57.45;97342.97;10403403;28;20484;-22
2022/07/06 10:58:35;;;;;;;0.85;0.70;;;;;;;20.42;57.17;97346.38;10400173;28;19995;-21
2022/07/06 11:03:45;;;;;;;0.90;0.85;;;;;;;20.52;57.10;97338.75;10404244;28;20485;-21
2022/07/06 11:08:57;;;;;;;5.25;2.13;;;;;;;20.69;57.31;97332.84;10393404;28;20116;-21
2022/07/06 11:14:03;;;;;;;1.40;0.95;;;;;;;20.68;56.88;97338.78;10396386;28;20037;-22
2022/07/06 11:19:11;;;;;;;1.25;0.90;;;;;;;20.55;57.18;97331.97;10403461;28;20043;-23
2022/07/06 11:24:17;;;;;;;1.30;0.90;;;;;;;20.45;57.12;97326.91;10400366;28;20389;-23
2022/07/06 11:29:22;;;;;;;1.27;0.90;;;;;;;20.47;57.23;97332.81;10408179;28;20034;-21
2022/07/06 11:34:25;;;;;;;0.73;0.70;;;;;;;20.44;57.31;97323.50;10399022;28;20163;-21
2022/07/06 11:39:29;;;;;;;0.77;0.68;;;;;;;20.45;57.34;97316.72;10404800;28;20041;-24
2022/07/06 11:44:30;;;;;;;1.75;0.90;;;;;;;20.43;57.43;97316.72;10392456;28;20042;-22
2022/07/06 11:49:31;;;;;;;1.35;1.10;;;;;;;20.43;57.58;97311.63;10396236;28;20404;-21
2022/07/06 11:54:32;;;;;;;4.70;2.08;;;;;;;20.52;57.23;97315.84;10388459;28;20038;-21
2022/07/06 11:59:34;;;;;;;4.18;1.65;;;;;;;20.71;56.40;97309.97;10400419;28;20079;-23
2022/07/06 12:04:37;;;;;;;1.45;0.80;;;;;;;20.75;56.37;97309.97;10393602;28;20117;-23
2022/07/06 12:09:40;;;;;;;2.15;1.05;;;;;;;20.60;56.88;97307.41;10396407;28;20037;-21
2022/07/06 12:14:42;;;;;;;1.90;1.05;;;;;;;20.54;57.15;97319.28;10395272;28;20088;-23
2022/07/06 12:19:43;;;;;;;1.30;0.88;;;;;;;20.50;57.30;97313.34;10398543;28;20034;-21
2022/07/06 12:24:47;;;;;;;2.75;1.92;;;;;;;20.45;57.45;97309.09;10398614;28;20349;-22
2022/07/06 12:29:48;;;;;;;7.20;1.52;;;;;;;20.48;57.20;97306.53;10399942;28;20387;-22
2022/07/06 12:35:08;;;;;;;4.10;1.45;;;;;;;20.48;57.30;97298.91;10386776;28;20033;-21
2022/07/06 12:40:13;;;;;;;0.93;0.60;;;;;;;20.46;57.57;97293.81;10396883;28;20385;-23
2022/07/06 12:45:13;;;;;;;6.88;1.85;;;;;;;20.48;57.46;97289.56;10396562;28;20033;-22
2022/07/06 12:50:14;;;;;;;6.87;1.83;;;;;;;20.71;56.92;97290.44;10395679;28;20037;-22
2022/07/06 12:55:15;;;;;;;14.83;1.80;;;;;;;20.80;56.79;97297.25;10395014;28;20038;-23
2022/07/06 13:00:17;;;;;;;4.43;1.20;;;;;;;20.68;56.95;97295.53;10395316;28;20029;-21
2022/07/06 13:05:17;;;;;;;6.70;0.93;;;;;;;20.57;57.47;97284.47;10398187;28;20029;-21
2022/07/06 13:10:17;;;;;;;10.87;1.63;;;;;;;20.52;57.28;97286.19;10397755;28;20543;-23
2022/07/06 13:15:18;;;;;;;4.97;0.97;;;;;;;20.50;57.57;97282.81;10392162;28;20533;-22
2022/07/06 13:20:19;;;;;;;5.28;1.20;;;;;;;20.51;57.68;97287.03;10396067;28;20982;-21
2022/07/06 13:25:19;;;;;;;4.45;0.80;;;;;;;20.49;57.81;97278.56;10392797;28;20304;-21
2022/07/06 13:30:20;;;;;;;2.72;0.90;;;;;;;20.49;57.78;97273.47;10392693;28;20029;-22
2022/07/06 13:35:20;;;;;;;3.05;1.25;;;;;;;20.49;57.90;97275.16;10395635;28;20571;-23
2022/07/06 13:40:21;;;;;;;7.25;1.42;;;;;;;20.61;57.84;97270.94;10394016;28;20033;-21
2022/07/06 13:45:21;;;;;;;6.93;2.28;;;;;;;20.79;58.21;97275.19;10397786;28;20109;-21
2022/07/06 13:50:22;;;;;;;3.88;1.10;;;;;;;20.75;57.38;97270.94;10391988;28;20071;-21
2022/07/06 13:55:22;;;;;;;3.20;1.00;;;;;;;20.59;57.68;97262.47;10398970;28;20064;-21
2022/07/06 14:00:23;;;;;;;1.07;0.90;;;;;;;20.55;57.81;97267.53;10401476;28;20048;-21
2022/07/06 14:05:23;;;;;;;6.93;0.93;;;;;;;20.52;57.82;97268.38;10405324;28;20655;-22
2022/07/06 14:10:24;;;;;;;3.10;1.00;;;;;;;20.48;57.90;97258.22;10399520;28;20033;-22
2022/07/06 14:15:24;;;;;;;2.90;1.08;;;;;;;20.49;58.08;97265.00;10397676;28;20039;-24
2022/07/06 14:20:25;;;;;;;1.55;0.93;;;;;;;20.49;57.96;97258.22;10401699;28;20037;-23
2022/07/06 14:25:25;;;;;;;1.33;0.70;;;;;;;20.49;58.16;97249.72;10398916;28;20113;-23
2022/07/06 14:30:26;;;;;;;3.90;1.87;;;;;;;20.57;58.40;97248.03;10392324;28;20033;-21
2022/07/06 14:35:26;;;;;;;2.17;1.40;;;;;;;20.77;58.31;97246.31;10393163;28;20040;-21
2022/07/06 14:40:26;;;;;;;1.75;0.90;;;;;;;20.81;57.33;97241.22;10390037;28;20037;-21
2022/07/06 14:45:27;;;;;;;2.40;0.80;;;;;;;20.65;57.55;97241.25;10395350;28;20466;-21
2022/07/06 14:50:28;;;;;;;0.88;0.80;;;;;;;20.58;58.09;97239.56;10401118;28;20067;-22
2022/07/06 14:55:28;;;;;;;2.10;0.95;;;;;;;20.53;58.10;97231.91;10389847;28;20040;-22
2022/07/06 15:00:29;;;;;;;4.38;1.20;;;;;;;20.47;58.27;97228.53;10402317;28;20152;-23
2022/07/06 15:05:29;;;;;;;1.23;0.77;;;;;;;20.52;58.27;97237.84;10392090;28;20065;-22
2022/07/06 15:10:30;;;;;;;1.70;0.90;;;;;;;20.50;58.26;97236.16;10402996;28;20136;-21
2022/07/06 15:15:30;;;;;;;1.13;0.73;;;;;;;20.49;58.22;97235.31;10391301;28;20786;-21
2022/07/06 15:20:30;;;;;;;1.15;0.90;;;;;;;20.49;58.38;97235.31;10392405;28;20517;-23
2022/07/06 15:25:31;;;;;;;3.10;1.30;;;;;;;20.70;58.65;97227.66;10396856;28;20041;-23
2022/07/06 15:30:33;;;;;;;2.00;1.20;;;;;;;20.76;58.28;97214.94;10394098;28;20042;-22
2022/07/06 15:35:34;;;;;;;1.02;0.75;;;;;;;20.77;57.72;97220.88;10400026;28;20032;-24
2022/07/06 15:40:40;;;;;;;1.00;0.80;;;;;;;20.60;58.00;97222.59;10398576;28;20047;-21
2022/07/06 15:45:40;;;;;;;3.07;0.83;;;;;;;20.55;58.43;97214.94;10394136;28;20029;-22
2022/07/06 15:50:40;;;;;;;1.20;0.77;;;;;;;20.53;58.33;97221.75;10397225;28;20500;-23
2022/07/06 15:55:41;;;;;;;1.33;0.80;;;;;;;20.51;58.27;97218.34;10389152;28;20045;-22
2022/07/06 16:00:42;;;;;;;1.25;0.80;;;;;;;20.52;58.45;97217.50;10398601;28;20040;-21
2022/07/06 16:05:42;;;;;;;0.98;0.70;;;;;;;20.51;58.67;97215.81;10403495;28;20306;-21
2022/07/06 16:10:44;;;;;;;3.38;1.10;;;;;;;20.51;58.46;97213.28;10398408;28;20061;-22
2022/07/06 16:15:45;;;;;;;8.23;1.80;;;;;;;20.56;58.85;97193.75;10393180;28;20510;-21
2022/07/06 16:20:45;;;;;;;2.53;0.98;;;;;;;20.80;58.39;97201.34;10397175;28;20303;-22
2022/07/06 16:25:46;;;;;;;0.87;0.60;;;;;;;20.85;57.55;97198.81;10388055;28;20040;-21
2022/07/06 16:30:46;;;;;;;2.88;0.90;;;;;;;20.69;58.00;97198.00;10392224;28;20037;-21
2022/07/06 16:35:47;;;;;;;0.80;0.60;;;;;;;20.60;58.31;97200.53;10396712;28;20030;-21
2022/07/06 16:40:47;;;;;;;1.75;1.25;;;;;;;20.60;58.58;97192.06;10392082;28;20037;-20
2022/07/06 16:45:48;;;;;;;4.40;1.43;;;;;;;20.60;58.90;97198.00;10399316;28;20586;-21
2022/07/06 16:50:48;;;;;;;1.85;1.00;;;;;;;20.64;58.48;97194.59;10386950;28;20553;-22
2022/07/06 16:55:48;;;;;;;1.30;0.93;;;;;;;20.68;58.46;97196.31;10395180;28;20355;-22
2022/07/06 17:00:49;;;;;;;1.23;0.83;;;;;;;20.72;58.46;97197.97;10389474;28;20072;-22
2022/07/06 17:05:49;;;;;;;1.13;0.60;;;;;;;20.69;58.22;97195.44;10388839;28;20041;-22
2022/07/06 17:10:50;;;;;;;5.60;1.83;;;;;;;20.86;59.12;97211.56;10387696;28;20038;-21
2022/07/06 17:15:50;;;;;;;4.82;2.55;;;;;;;20.94;59.14;97214.94;10388589;28;20041;-22
2022/07/06 17:20:50;;;;;;;1.77;0.90;;;;;;;20.84;58.30;97218.34;10375692;28;20050;-20
2022/07/06 17:25:56;;;;;;;3.10;1.50;;;;;;;20.81;58.36;97218.31;10396405;28;20095;-22
2022/07/06 17:30:56;;;;;;;1.75;0.90;;;;;;;20.77;58.42;97221.72;10398703;28;20083;-20
2022/07/06 17:35:57;;;;;;;1.33;0.93;;;;;;;20.77;58.45;97226.81;10403887;28;20449;-21
2022/07/06 17:40:57;;;;;;;1.88;1.10;;;;;;;20.74;58.54;97237.03;10404331;28;20296;-23
2022/07/06 17:45:57;;;;;;;3.17;0.90;;;;;;;20.43;59.10;97248.03;10403237;28;20139;-23
2022/07/06 17:50:58;;;;;;;4.47;1.20;;;;;;;20.28;57.53;97246.31;10387105;28;20040;-24
2022/07/06 17:55:58;;;;;;;1.33;0.68;;;;;;;20.26;56.41;97253.09;10342511;28;20041;-25
2022/07/06 18:00:58;;;;;;;3.37;0.90;;;;;;;20.13;54.98;97262.41;10395421;28;20095;-23
2022/07/06 18:06:01;;;;;;;2.43;0.87;;;;;;;20.14;53.81;97268.31;10393765;28;20446;-23
2022/07/06 18:11:02;;;;;;;6.90;0.90;;;;;;;20.02;54.70;97271.63;10396003;28;20025;-22
2022/07/06 18:16:03;;;;;;;6.50;1.00;;;;;;;20.06;54.06;97264.91;10388951;28;20025;-22
2022/07/06 18:21:04;;;;;;;1.38;0.90;;;;;;;19.97;52.94;97282.66;10400059;28;20029;-24
2022/07/06 18:26:06;;;;;;;2.95;0.73;;;;;;;19.98;51.70;97289.41;10392391;28;20034;-23
2022/07/06 18:31:06;;;;;;;2.25;0.80;;;;;;;19.96;52.44;97298.75;10390514;28;20029;-23
2022/07/06 18:36:07;;;;;;;2.80;0.83;;;;;;;19.84;50.64;97288.56;10393763;28;20083;-24
2022/07/06 18:41:08;;;;;;;1.25;0.80;;;;;;;19.89;50.08;97299.56;10391712;28;20033;-24
2022/07/06 18:46:08;;;;;;;3.33;0.77;;;;;;;19.84;49.77;97299.53;10387321;28;20116;-25
2022/07/06 18:51:09;;;;;;;2.38;1.13;;;;;;;19.84;50.75;97301.25;10382935;28;20037;-23
2022/07/06 18:56:09;;;;;;;8.07;1.35;;;;;;;19.78;49.03;97285.97;10388594;28;20099;-24
2022/07/06 19:01:10;;;;;;;1.13;0.90;;;;;;;19.79;49.45;97292.75;10388339;28;20037;-23
2022/07/06 19:06:15;;;;;;;2.58;1.10;;;;;;;19.75;50.56;97284.25;10386048;28;20055;-23
2022/07/06 19:11:15;;;;;;;5.20;0.93;;;;;;;19.71;50.57;97274.94;10387811;28;20025;-25
2022/07/06 19:16:15;;;;;;;3.87;1.10;;;;;;;19.76;50.03;97280.03;10384734;28;20045;-24
2022/07/06 19:21:16;;;;;;;4.10;1.07;;;;;;;19.68;50.41;97295.25;10391084;28;20651;-23
2022/07/06 19:26:17;;;;;;;7.15;1.30;;;;;;;19.57;50.09;97303.66;10385180;28;20389;-24
2022/07/06 19:31:18;;;;;;;3.08;1.00;;;;;;;19.56;49.80;97314.66;10383503;28;20080;-23
2022/07/06 19:36:19;;;;;;;3.38;1.17;;;;;;;19.51;49.38;97303.63;10387429;28;20626;-25
2022/07/06 19:41:22;;;;;;;5.35;1.00;;;;;;;19.46;49.41;97297.66;10385028;28;20080;-23
2022/07/06 19:46:22;;;;;;;2.63;1.00;;;;;;;19.37;49.86;97303.56;10392020;28;20034;-23
2022/07/06 19:51:23;;;;;;;2.83;1.67;;;;;;;19.39;49.53;97316.25;10381783;28;20026;-23
2022/07/06 19:56:23;;;;;;;3.27;1.10;;;;;;;19.27;49.47;97317.03;10386706;28;20778;-23
2022/07/06 20:01:23;;;;;;;4.63;1.20;;;;;;;19.31;49.58;97323.84;10391425;28;20307;-24
2022/07/06 20:06:24;;;;;;;3.47;1.30;;;;;;;19.32;50.30;97342.44;10384298;28;20037;-25
2022/07/06 20:11:25;;;;;;;1.85;0.90;;;;;;;19.25;50.22;97344.09;10391059;28;20029;-25
2022/07/06 20:16:28;;;;;;;3.20;1.42;;;;;;;19.22;50.50;97353.38;10379222;28;20296;-26
2022/07/06 20:21:29;;;;;;;2.65;1.13;;;;;;;19.18;51.35;97355.00;10383809;28;20444;-25
2022/07/06 20:26:29;;;;;;;1.67;0.80;;;;;;;19.16;51.73;97374.47;10391383;28;20038;-25
2022/07/06 20:31:30;;;;;;;5.40;1.13;;;;;;;19.16;52.34;97379.53;10381803;28;20037;-23
2022/07/06 20:36:30;;;;;;;1.58;0.90;;;;;;;19.07;52.68;97378.59;10389123;28;20047;-25
2022/07/06 20:41:31;;;;;;;2.25;0.90;;;;;;;19.02;51.02;97370.13;10388442;28;20103;-25
2022/07/06 20:46:31;;;;;;;1.80;1.00;;;;;;;19.02;51.42;97386.19;10388909;28;20109;-24
2022/07/06 20:51:32;;;;;;;4.90;1.43;;;;;;;18.97;51.97;97371.75;10392337;28;20029;-24
2022/07/06 20:56:32;;;;;;;4.40;1.27;;;;;;;18.91;52.17;97361.59;10383514;28;20034;-24
2022/07/06 21:01:33;;;;;;;5.20;1.13;;;;;;;18.87;52.53;97364.91;10391691;28;20407;-25
2022/07/06 21:06:34;;;;;;;2.63;1.00;;;;;;;18.79;53.22;97369.06;10400193;28;20509;-23
2022/07/06 21:11:35;;;;;;;1.80;0.90;;;;;;;18.80;52.68;97373.31;10409504;28;20079;-24
2022/07/06 21:16:35;;;;;;;1.10;0.77;;;;;;;18.80;52.75;97363.16;10398500;28;20851;-25
2022/07/06 21:21:35;;;;;;;1.83;1.07;;;;;;;18.82;52.73;97348.81;10400601;28;20465;-25
2022/07/06 21:26:36;;;;;;;4.80;1.90;;;;;;;18.76;52.49;97341.97;10400077;28;20496;-25
2022/07/06 21:31:36;;;;;;;2.90;1.10;;;;;;;18.76;52.64;97346.22;10403231;28;20472;-26
2022/07/06 21:36:37;;;;;;;2.20;0.82;;;;;;;18.74;52.58;97348.72;10405344;28;20033;-24
2022/07/06 21:41:37;;;;;;;3.45;1.45;;;;;;;18.72;52.15;97357.16;10409661;28;20064;-22
2022/07/06 21:46:37;;;;;;;2.90;1.67;;;;;;;18.67;52.63;97351.22;10403991;28;20029;-23
2022/07/06 21:51:38;;;;;;;3.57;1.00;;;;;;;18.62;53.44;97353.72;10401600;28;20036;-23
2022/07/06 21:56:38;;;;;;;3.40;1.30;;;;;;;18.60;53.14;97354.53;10405419;28;20488;-23
2022/07/06 22:01:39;;;;;;;5.00;1.17;;;;;;;18.53;53.11;97358.69;10404966;28;20538;-25
2022/07/06 22:06:39;;;;;;;2.57;1.00;;;;;;;18.57;52.97;97354.50;10402377;28;20338;-22
2022/07/06 22:11:39;;;;;;;2.80;1.00;;;;;;;18.55;52.68;97356.16;10401331;28;20025;-25
2022/07/06 22:16:41;;;;;;;1.50;0.80;;;;;;;18.51;52.76;97360.34;10394334;28;20296;-25
2022/07/06 22:21:42;;;;;;;2.42;0.98;;;;;;;18.50;53.06;97362.88;10395979;28;20037;-24
2022/07/06 22:26:42;;;;;;;3.97;1.23;;;;;;;18.44;52.81;97356.06;10394705;28;20048;-23
2022/07/06 22:31:43;;;;;;;2.40;1.10;;;;;;;18.40;52.83;97359.38;10394724;28;20551;-25
2022/07/06 22:36:43;;;;;;;2.78;0.90;;;;;;;18.38;52.96;97358.53;10394569;28;20483;-23
2022/07/06 22:41:43;;;;;;;2.17;0.88;;;;;;;18.37;52.56;97354.31;10399530;28;20030;-24
2022/07/06 22:46:44;;;;;;;3.87;1.00;;;;;;;18.30;52.81;97349.13;10400047;28;20045;-24
2022/07/06 22:51:44;;;;;;;2.80;1.10;;;;;;;18.29;52.80;97353.38;10389652;28;20404;-22
2022/07/06 22:56:45;;;;;;;2.87;1.23;;;;;;;18.27;52.72;97346.53;10389042;28;20419;-23
2022/07/06 23:01:46;;;;;;;3.88;1.20;;;;;;;18.27;52.72;97346.53;10395543;28;20033;-25
2022/07/06 23:06:46;;;;;;;2.60;1.38;;;;;;;18.26;52.76;97348.22;10391900;28;20079;-24
2022/07/06 23:11:46;;;;;;;5.43;1.10;;;;;;;18.21;52.68;97359.13;10396207;28;20084;-23
2022/07/06 23:16:47;;;;;;;3.20;1.93;;;;;;;18.06;53.23;97353.88;10394771;28;20300;-22
2022/07/06 23:21:47;;;;;;;3.87;1.10;;;;;;;18.12;53.11;97374.25;10393443;28;20041;-23
2022/07/06 23:26:47;;;;;;;5.40;2.37;;;;;;;18.05;53.14;97369.94;10395126;28;20037;-23
2022/07/06 23:31:48;;;;;;;3.50;1.30;;;;;;;18.03;53.03;97369.94;10390908;28;20501;-23